Nubieber, CA (96068)

5:29 PM PDT on August 30, 2014 (GMT -0700)
RAWS LADDER BUTTE CA US | Change Station
CLOSE
Current Station
Personal Weather Station
Location: Hat Creek, CA
Elevation: 5671 ft
Nearby Weather Stations

Elev 5671 ft 40.81 °N, 121.30 °W | Updated 36 minutes ago

Mostly Cloudy
Mostly Cloudy
73 °F
Feels Like 75 °F
N
16
Wind Variable Wind from West
Gusts 27.0 mph

Today
High -- | Low -- °F
--% Chance of Precip.
Yesterday
High -- | Low -- °F
Precip. -- in
6:29 AM 7:39 PM
Waxing Crescent, 26% visible
Pressure 29.85 in
Visibility 10.0 miles
Clouds Clear
Heat Index 75 °F
Dew Point 27 °F
Humidity 18%
Rainfall 0.00 in
Snow Depth Not available.
UV 3 out of 12
Pollen 9.10 out of 12
Air Quality Not available.
Flu Activity Not available.
METAR KAAT 302355Z AUTO 33012KT 10SM CLR 25/03 A2996 RMK AO2 SLP108 T02500033 10267 20194 56010 $

More Conditions Fewer Conditions

Pressure 29.85 in
Visibility 10.0 miles
Clouds Clear
Heat Index 75 °F
Dew Point 27 °F
Humidity 18%
Rainfall 0.00 in
Snow Depth Not available.
UV 3 out of 12
Pollen 9.10 out of 12
Air Quality Not available.
Flu Activity Not available.
METAR KAAT 302355Z AUTO 33012KT 10SM CLR 25/03 A2996 RMK AO2 SLP108 T02500033 10267 20194 56010 $

More Conditions Fewer Conditions

10-Day Weather Forecast

Almanac

Astronomy

Aug. 30, 2014 Rise Set
Actual Time 6:29 AM PDT 7:39 PM PDT
Civil Twilight 6:00 AM PDT 8:08 PM PDT
Nautical Twilight 5:27 AM PDT 8:42 PM PDT
Astronomical Twilight 4:51 AM PDT 9:17 PM PDT
Moon 11:24 AM PDT (8/30) 10:14 PM PDT (8/30)
Length of Visible Light 14h 07m
Length of Day
13h 10m
Tomorrow will be 2m 35s shorter.
Waxing Crescent, 26% of the Moon is Illuminated
Today
Waxing Crescent
Sep 2
First Quarter
Sep 8
Full
Sep 15
Last Quarter
Sep 24
New

Today's Extremes

State Highs State Lows

Community

WunderPhotos

Upload Photos

1,748,704 photos uploaded!

Nearby

Snow Depth

Station Depth Elevation
Adin Mountain 0 in 6200 ft
Cedar Pass 1 in 7100 ft
CSS Lab 0 in 6900 ft
Tahoe City Cross 0 in 6750 ft
Blue Lakes 0 in 8000 ft

Earthquake Activity

City Distance Mag. Time & Date
Lakeview, Oregon 99 miles 2.8 3:14 PM PDT
2014-08-29
Lakeview, Oregon 99 miles 2.7 2:21 PM PDT
2014-08-29
Lakeview, Oregon 99 miles 3.0 10:47 AM PDT
2014-08-29
Lakeview, Oregon 99 miles 2.5 5:31 AM PDT
2014-08-29
Minimum magnitude displayed is 2.5.

Coastal Water Temperatures

Place Temperature
No Stations Reporting

Nearby Weather Stations